Time;durP1;ratioP1;P1;durP2;ratioP2;P2;SDS_P1;SDS_P2;PMS_P1;PMS_P2;Temp;Humidity;BMP_temperature;BMP_pressure;BME280_temperature;BME280_humidity;BME280_pressure;Samples;Min_cycle;Max_cycle;Signal;HPM_P1;HPM_P2
2024/01/05 00:02:21;;;;;;;;;0.00;0.00;;;;;10.82;77.51;99715.66;4976793;28;46118;-49
2024/01/05 00:04:47;;;;;;;;;5.00;0.00;;;;;10.79;77.23;99716.84;4976844;28;45329;-48
2024/01/05 00:07:12;;;;;;;;;2.67;0.00;;;;;10.74;76.57;99708.53;4976876;28;45455;-45
2024/01/05 00:09:37;;;;;;;;;1.00;1.00;;;;;10.71;76.85;99704.41;4976572;28;45360;-47
2024/01/05 00:12:03;;;;;;;;;2.00;2.00;;;;;10.71;77.52;99706.25;4976380;28;46040;-48
2024/01/05 00:14:29;;;;;;;;;3.67;1.00;;;;;10.66;77.11;99708.56;4976018;28;45477;-47
2024/01/05 00:16:58;;;;;;;;;5.00;1.00;;;;;10.67;77.01;99716.38;4976562;28;45392;-47
2024/01/05 00:19:24;;;;;;;;;2.00;1.00;;;;;10.67;77.13;99710.25;4976253;28;45443;-49
2024/01/05 00:21:51;;;;;;;;;3.67;1.00;;;;;10.66;76.88;99706.75;4975757;28;46875;-49
2024/01/05 00:24:16;;;;;;;;;0.00;0.00;;;;;10.68;77.01;99712.72;4975869;28;45366;-50
2024/01/05 00:26:41;;;;;;;;;4.00;0.00;;;;;10.71;77.05;99712.38;4976190;28;45769;-50
2024/01/05 00:29:07;;;;;;;;;0.00;0.00;;;;;10.72;76.55;99722.00;4976466;28;45414;-49
2024/01/05 00:31:32;;;;;;;;;1.33;1.33;;;;;10.74;76.40;99719.16;4975929;28;45433;-46
2024/01/05 00:33:57;;;;;;;;;0.00;0.00;;;;;10.77;76.54;99718.00;4975484;28;45464;-48
2024/01/05 00:36:23;;;;;;;;;1.00;1.00;;;;;10.81;76.46;99721.97;4976268;28;45507;-49
2024/01/05 00:38:49;;;;;;;;;0.00;0.00;;;;;10.77;76.23;99710.03;4977428;28;45463;-48
2024/01/05 00:41:14;;;;;;;;;4.33;0.67;;;;;10.81;76.29;99717.47;4977523;28;45498;-47
2024/01/05 00:43:40;;;;;;;;;0.00;0.00;;;;;10.83;75.79;99727.94;4977303;28;45378;-50
2024/01/05 00:46:05;;;;;;;;;0.00;0.00;;;;;10.83;76.58;99723.47;4977376;28;45336;-49
2024/01/05 00:48:31;;;;;;;;;1.67;1.00;;;;;10.82;75.93;99715.66;4977531;28;45493;-48
2024/01/05 00:50:56;;;;;;;;;2.00;0.00;;;;;10.82;76.02;99718.31;4992006;28;47238;-49
2024/01/05 00:53:21;;;;;;;;;1.33;0.33;;;;;10.82;76.00;99726.28;4977031;28;45375;-51
2024/01/05 00:55:46;;;;;;;;;1.00;1.00;;;;;10.83;75.50;99733.25;4977204;28;45410;-49
2024/01/05 00:58:12;;;;;;;;;1.33;0.00;;;;;10.78;76.17;99719.66;4977261;28;45242;-47
2024/01/05 01:00:37;;;;;;;;;2.33;0.00;;;;;10.85;74.91;99728.63;4976847;28;45399;-46
2024/01/05 01:03:03;;;;;;;;;0.00;0.00;;;;;10.87;74.96;99734.56;4976952;28;45225;-47
2024/01/05 01:05:28;;;;;;;;;2.00;2.00;;;;;10.88;74.80;99723.78;4977021;28;45428;-51
2024/01/05 01:07:54;;;;;;;;;3.00;2.00;;;;;10.89;74.86;99733.41;4977182;28;45328;-49
2024/01/05 01:10:19;;;;;;;;;4.00;1.00;;;;;10.89;74.09;99729.94;4976733;28;45960;-50
2024/01/05 01:12:44;;;;;;;;;1.00;1.00;;;;;10.88;73.97;99736.25;4976878;28;45291;-45
2024/01/05 01:15:10;;;;;;;;;2.33;0.00;;;;;10.89;73.38;99740.56;4976805;28;45281;-49
2024/01/05 01:17:35;;;;;;;;;3.00;0.00;;;;;10.89;73.32;99749.38;4977319;28;45345;-48
2024/01/05 01:20:01;;;;;;;;;0.00;0.00;;;;;10.90;73.22;99743.03;4976752;28;46141;-47
2024/01/05 01:22:26;;;;;;;;;0.00;0.00;;;;;10.90;72.65;99750.19;4976751;28;45386;-52
2024/01/05 01:24:51;;;;;;;;;0.00;0.00;;;;;10.93;71.52;99755.19;4976968;28;45425;-49
2024/01/05 01:27:17;;;;;;;;;0.00;0.00;;;;;10.85;70.14;99753.38;4976936;28;45445;-50
2024/01/05 01:29:43;;;;;;;;;0.00;0.00;;;;;10.85;69.95;99753.38;4976639;28;45508;-48
2024/01/05 01:32:11;;;;;;;;;0.00;0.00;;;;;10.82;67.82;99763.53;4976790;28;45422;-50
2024/01/05 01:34:40;;;;;;;;;0.00;0.00;;;;;10.78;68.64;99762.22;4976661;28;45280;-49
2024/01/05 01:37:05;;;;;;;;;0.00;0.00;;;;;10.75;68.27;99750.13;4976764;28;45311;-47
2024/01/05 01:39:32;;;;;;;;;0.00;0.00;;;;;10.71;66.69;99746.97;4976375;28;46559;-47
2024/01/05 01:41:58;;;;;;;;;0.00;0.00;;;;;10.70;67.96;99760.41;4976317;28;45387;-50
2024/01/05 01:44:23;;;;;;;;;0.33;0.00;;;;;10.60;66.05;99749.16;4976605;28;45344;-47
2024/01/05 01:46:55;;;;;;;;;0.00;0.00;;;;;10.54;66.72;99755.16;4976758;28;45488;-46
2024/01/05 01:49:21;;;;;;;;;0.00;0.00;;;;;10.54;65.96;99758.66;4976457;28;45489;-47
2024/01/05 01:51:47;;;;;;;;;0.00;0.00;;;;;10.62;67.33;99779.06;4976301;28;45442;-46
2024/01/05 01:54:12;;;;;;;;;0.00;0.00;;;;;10.62;66.93;99771.94;4976715;28;45794;-47
2024/01/05 01:56:38;;;;;;;;;0.00;0.00;;;;;10.62;65.68;99779.91;4976539;28;45482;-51
2024/01/05 01:59:05;;;;;;;;;0.00;0.00;;;;;10.65;66.40;99787.53;4976032;28;46223;-45
2024/01/05 02:01:31;;;;;;;;;2.00;0.00;;;;;10.67;67.44;99788.19;4976331;28;45348;-44
2024/01/05 02:03:57;;;;;;;;;0.00;0.00;;;;;10.69;67.04;99777.38;4976452;28;45343;-46
2024/01/05 02:06:23;;;;;;;;;0.00;0.00;;;;;10.69;66.04;99788.84;4976467;28;45339;-46
2024/01/05 02:08:49;;;;;;;;;0.00;0.00;;;;;10.66;65.51;99772.41;4976125;28;46920;-48
2024/01/05 02:11:15;;;;;;;;;0.00;0.00;;;;;10.71;65.50;99783.38;4976029;28;45267;-46
2024/01/05 02:13:40;;;;;;;;;2.33;0.00;;;;;10.70;65.30;99771.91;4976226;28;45429;-47
2024/01/05 02:16:06;;;;;;;;;0.67;0.00;;;;;10.71;65.44;99784.19;4976605;28;45406;-47
2024/01/05 02:18:31;;;;;;;;;0.00;0.00;;;;;10.68;65.75;99779.22;4978514;28;46189;-46
2024/01/05 02:21:00;;;;;;;;;0.00;0.00;;;;;10.73;65.31;99786.69;4979401;28;45415;-49
2024/01/05 02:23:26;;;;;;;;;0.00;0.00;;;;;10.72;66.56;99769.91;4979391;28;45365;-49
2024/01/05 02:25:54;;;;;;;;;0.00;0.00;;;;;10.66;65.38;99775.06;4979526;28;45236;-45
2024/01/05 02:28:19;;;;;;;;;0.00;0.00;;;;;10.66;65.47;99762.63;4979049;28;46342;-46
2024/01/05 02:30:45;;;;;;;;;0.00;0.00;;;;;10.60;64.81;99765.94;4979218;28;45216;-48
2024/01/05 02:33:11;;;;;;;;;0.00;0.00;;;;;10.54;64.91;99766.63;4979459;28;45527;-47
2024/01/05 02:35:36;;;;;;;;;0.00;0.00;;;;;10.67;65.30;99782.88;4979629;28;45332;-47
2024/01/05 02:38:02;;;;;;;;;3.67;2.33;;;;;10.68;64.77;99781.88;4978753;28;46888;-48
2024/01/05 02:40:27;;;;;;;;;1.00;0.00;;;;;10.58;64.92;99772.44;4979143;28;45433;-46
2024/01/05 02:42:52;;;;;;;;;0.00;0.00;;;;;10.65;64.53;99779.53;4994289;28;45406;-46
2024/01/05 02:45:20;;;;;;;;;0.00;0.00;;;;;10.66;66.02;99780.38;4979405;28;45462;-48
2024/01/05 02:47:50;;;;;;;;;1.00;0.00;;;;;10.64;64.71;99788.53;4978955;28;45442;-45
2024/01/05 02:50:16;;;;;;;;;0.67;0.00;;;;;10.66;64.24;99796.34;4978499;28;45340;-46
2024/01/05 02:52:41;;;;;;;;;0.00;0.00;;;;;10.53;64.56;99759.63;4979049;28;45613;-47
2024/01/05 02:55:09;;;;;;;;;0.00;0.00;;;;;10.65;64.55;99790.19;4979053;28;45394;-47
2024/01/05 02:57:34;;;;;;;;;0.00;0.00;;;;;10.64;64.47;99801.84;4978664;28;46255;-45
2024/01/05 03:00:00;;;;;;;;;0.67;0.00;;;;;10.59;64.15;99784.75;4978805;28;45615;-48
2024/01/05 03:02:25;;;;;;;;;0.00;0.00;;;;;10.64;63.95;99799.16;4978878;28;45510;-48
2024/01/05 03:04:51;;;;;;;;;0.00;0.00;;;;;10.62;64.56;99806.50;4978972;28;45366;-47
2024/01/05 03:07:17;;;;;;;;;0.00;0.00;;;;;10.60;63.88;99795.19;4978637;28;46377;-48
2024/01/05 03:09:43;;;;;;;;;1.00;0.00;;;;;10.59;64.17;99793.53;4978493;28;45278;-48
2024/01/05 03:12:08;;;;;;;;;0.00;0.00;;;;;10.59;64.79;99792.72;4978990;28;45761;-47
2024/01/05 03:14:33;;;;;;;;;0.00;0.00;;;;;10.59;64.28;99790.06;4978736;28;45354;-46
2024/01/05 03:16:59;;;;;;;;;0.00;0.00;;;;;10.60;65.24;99794.38;4979217;28;46279;-46
2024/01/05 03:19:24;;;;;;;;;0.00;0.00;;;;;10.61;64.03;99798.69;4977901;28;45397;-50
2024/01/05 03:21:49;;;;;;;;;0.00;0.00;;;;;10.60;65.05;99794.38;4979745;28;45357;-47
2024/01/05 03:24:15;;;;;;;;;0.00;0.00;;;;;10.58;64.80;99794.53;4978923;28;45298;-44
2024/01/05 03:26:43;;;;;;;;;0.00;0.00;;;;;10.60;64.86;99797.84;4978205;28;47013;-45
2024/01/05 03:29:08;;;;;;;;;0.00;0.00;;;;;10.61;64.74;99796.84;4976872;28;45290;-46
2024/01/05 03:31:34;;;;;;;;;0.00;0.00;;;;;10.61;64.94;99806.66;4993462;28;45294;-46
2024/01/05 03:33:59;;;;;;;;;0.00;0.00;;;;;10.57;64.56;99805.34;4977478;28;45446;-50
2024/01/05 03:36:24;;;;;;;;;0.00;0.00;;;;;10.55;64.35;99802.03;4978120;28;46142;-49
2024/01/05 03:38:50;;;;;;;;;0.00;0.00;;;;;10.44;64.92;99797.88;4977850;28;45429;-50
2024/01/05 03:41:15;;;;;;;;;0.00;0.00;;;;;10.54;64.71;99798.53;4978395;28;45450;-47
2024/01/05 03:43:41;;;;;;;;;0.00;0.00;;;;;10.48;64.73;99789.41;4978547;28;45411;-47
2024/01/05 03:46:10;;;;;;;;;0.00;0.00;;;;;10.40;64.69;99785.94;4978109;28;45348;-47
2024/01/05 03:48:35;;;;;;;;;0.00;0.00;;;;;10.51;65.31;99808.69;4978080;28;45276;-49
2024/01/05 03:51:00;;;;;;;;;0.00;0.00;;;;;10.51;65.30;99820.16;4978177;28;45385;-47
2024/01/05 03:53:25;;;;;;;;;0.00;0.00;;;;;10.50;66.21;99826.47;4978428;28;45202;-47
2024/01/05 03:55:51;;;;;;;;;0.00;0.00;;;;;10.38;65.95;99814.53;4977938;28;46221;-48
2024/01/05 03:58:16;;;;;;;;;1.00;0.00;;;;;10.44;67.05;99822.63;4977867;28;45467;-45
2024/01/05 04:00:41;;;;;;;;;0.00;0.00;;;;;10.42;67.32;99826.47;4977995;28;45443;-47
2024/01/05 04:03:07;;;;;;;;;1.33;0.00;;;;;10.35;68.14;99817.50;4977950;28;45393;-47
2024/01/05 04:05:32;;;;;;;;;0.00;0.00;;;;;10.33;68.44;99812.38;4977780;28;45832;-47
2024/01/05 04:07:57;;;;;;;;;0.00;0.00;;;;;10.30;68.96;99820.66;4977572;28;47366;-44
2024/01/05 04:10:23;;;;;;;;;0.00;0.00;;;;;10.28;68.76;99824.47;4977805;28;45597;-46
2024/01/05 04:12:48;;;;;;;;;0.00;0.00;;;;;10.22;68.88;99826.78;4977985;28;45414;-46
2024/01/05 04:15:14;;;;;;;;;0.00;0.00;;;;;10.19;68.52;99835.09;4977651;28;47041;-47
2024/01/05 04:17:39;;;;;;;;;0.67;0.00;;;;;10.13;68.57;99825.13;4977655;28;45373;-45
2024/01/05 04:20:05;;;;;;;;;0.00;0.00;;;;;10.04;68.04;99818.16;4977791;28;45831;-47
2024/01/05 04:22:31;;;;;;;;;1.00;0.00;;;;;10.01;68.38;99826.44;4977892;28;45366;-45
2024/01/05 04:24:58;;;;;;;;;0.33;0.00;;;;;9.92;68.16;99817.66;4977401;28;45343;-45
2024/01/05 04:27:23;;;;;;;;;0.00;0.00;;;;;9.90;68.03;99818.78;4977504;28;45450;-46
2024/01/05 04:29:49;;;;;;;;;0.00;0.00;;;;;9.84;68.31;99824.78;4977395;28;45405;-47
2024/01/05 04:32:14;;;;;;;;;0.00;0.00;;;;;9.80;68.14;99820.78;4977556;28;45348;-49
2024/01/05 04:34:40;;;;;;;;;0.00;0.00;;;;;9.72;67.88;99825.09;4977302;28;45453;-47
2024/01/05 04:37:05;;;;;;;;;0.00;0.00;;;;;9.68;67.62;99825.59;4977118;28;45379;-48
2024/01/05 04:39:30;;;;;;;;;0.00;0.00;;;;;9.65;68.33;99821.44;4977024;28;45569;-49
2024/01/05 04:41:56;;;;;;;;;0.00;0.00;;;;;9.61;68.02;99830.72;4977253;28;45269;-47
2024/01/05 04:44:21;;;;;;;;;0.00;0.00;;;;;9.60;68.14;99836.19;4976996;28;45417;-45
2024/01/05 04:46:47;;;;;;;;;1.00;0.00;;;;;9.54;68.18;99827.06;4976918;28;45394;-48
2024/01/05 04:49:12;;;;;;;;;0.00;0.00;;;;;9.52;68.24;99831.69;4977242;28;45434;-47
2024/01/05 04:51:37;;;;;;;;;0.00;0.00;;;;;9.48;68.61;99838.31;4977435;28;45483;-47
2024/01/05 04:54:03;;;;;;;;;0.00;0.00;;;;;9.41;68.47;99837.31;4975973;28;46302;-47
2024/01/05 04:56:29;;;;;;;;;0.00;0.00;;;;;9.34;68.08;99834.47;4977501;28;45378;-48
2024/01/05 04:58:54;;;;;;;;;0.00;0.00;;;;;9.39;69.18;99839.28;4977121;28;45371;-46
2024/01/05 05:01:20;;;;;;;;;0.00;0.00;;;;;9.34;69.19;99845.06;4977095;28;45473;-49
2024/01/05 05:03:48;;;;;;;;;1.00;0.00;;;;;9.33;69.07;99845.25;4976896;28;45584;-46
2024/01/05 05:06:13;;;;;;;;;0.00;0.00;;;;;9.32;68.55;99848.91;4976962;28;45367;-48
2024/01/05 05:08:38;;;;;;;;;2.33;0.00;;;;;9.31;68.81;99852.53;4976807;28;45264;-48
2024/01/05 05:11:05;;;;;;;;;0.00;0.00;;;;;9.28;69.49;99853.69;4977486;28;45531;-48
2024/01/05 05:13:30;;;;;;;;;1.00;0.00;;;;;9.27;69.85;99853.84;4976707;28;45265;-48
2024/01/05 05:15:55;;;;;;;;;0.00;0.00;;;;;9.23;69.56;99846.22;4976577;28;45348;-47
2024/01/05 05:18:20;;;;;;;;;1.00;0.00;;;;;9.18;70.45;99855.63;4976823;28;45305;-47
2024/01/05 05:20:46;;;;;;;;;0.00;0.00;;;;;9.12;70.60;99841.19;4976908;28;45334;-48
2024/01/05 05:23:11;;;;;;;;;0.00;0.00;;;;;9.16;70.38;99845.19;4976789;28;45446;-47
2024/01/05 05:25:37;;;;;;;;;0.00;0.00;;;;;8.72;70.55;99781.66;4976696;28;45387;-47
2024/01/05 05:28:02;;;;;;;;;0.00;0.00;;;;;9.09;70.78;99852.09;4976887;28;45380;-48
2024/01/05 05:30:28;;;;;;;;;0.00;0.00;;;;;9.07;70.87;99859.41;4976612;28;45452;-47
2024/01/05 05:32:53;;;;;;;;;0.33;0.33;;;;;9.03;71.13;99859.88;4976356;28;46287;-48
2024/01/05 05:35:18;;;;;;;;;0.00;0.00;;;;;9.03;71.28;99871.31;4976515;28;45462;-48
2024/01/05 05:37:44;;;;;;;;;0.00;0.00;;;;;9.02;70.84;99869.66;4976454;28;45833;-47
2024/01/05 05:40:11;;;;;;;;;0.00;0.00;;;;;8.98;71.01;99868.31;4976762;28;45299;-50
2024/01/05 05:42:36;;;;;;;;;0.00;0.00;;;;;8.98;71.00;99866.50;4976404;28;45484;-49
2024/01/05 05:45:01;;;;;;;;;0.00;0.00;;;;;8.96;71.89;99868.44;4976420;28;45592;-44
2024/01/05 05:47:27;;;;;;;;;0.33;0.33;;;;;8.93;71.12;99860.84;4976553;28;45430;-48
2024/01/05 05:49:53;;;;;;;;;0.00;0.00;;;;;8.95;71.42;99871.28;4976550;28;45285;-47
2024/01/05 05:52:18;;;;;;;;;0.00;0.00;;;;;8.91;71.02;99864.63;4977016;28;47201;-48
2024/01/05 05:54:43;;;;;;;;;0.00;0.00;;;;;8.87;71.54;99864.09;4979670;28;45383;-44
2024/01/05 05:57:09;;;;;;;;;0.33;0.00;;;;;8.84;71.41;99867.06;4980279;28;45396;-46
2024/01/05 05:59:35;;;;;;;;;0.00;0.00;;;;;8.85;71.95;99871.41;4980103;28;45351;-46
2024/01/05 06:02:00;;;;;;;;;0.00;0.00;;;;;8.78;71.87;99867.69;4979553;28;45338;-45
2024/01/05 06:04:25;;;;;;;;;0.00;0.00;;;;;8.81;71.88;99879.81;4979417;28;46637;-47
2024/01/05 06:06:51;;;;;;;;;0.00;0.00;;;;;8.81;72.00;99888.59;4979776;28;45237;-46
2024/01/05 06:09:16;;;;;;;;;0.00;0.00;;;;;8.78;72.02;99890.72;4979895;28;45379;-47
2024/01/05 06:11:41;;;;;;;;;0.33;0.00;;;;;8.72;72.00;99885.06;4979488;28;46211;-48
2024/01/05 06:14:07;;;;;;;;;0.33;0.33;;;;;8.71;72.63;99894.00;4979532;28;45421;-48
2024/01/05 06:16:32;;;;;;;;;0.00;0.00;;;;;8.70;72.04;99897.63;4979456;28;45470;-49
2024/01/05 06:18:58;;;;;;;;;0.00;0.00;;;;;8.72;72.67;99900.13;4978493;28;45457;-47
2024/01/05 06:21:23;;;;;;;;;2.00;0.00;;;;;8.71;72.91;99903.78;4979299;28;48806;-46
2024/01/05 06:23:49;;;;;;;;;0.67;0.00;;;;;8.67;72.99;99905.91;4979523;28;45331;-49
2024/01/05 06:26:14;;;;;;;;;0.00;0.00;;;;;8.67;73.12;99902.41;4979515;28;45326;-50
2024/01/05 06:28:39;;;;;;;;;1.00;0.00;;;;;8.65;73.66;99902.59;4979486;28;45313;-46
2024/01/05 06:31:05;;;;;;;;;2.00;0.00;;;;;8.61;72.71;99908.34;4978998;28;46503;-45
2024/01/05 06:33:31;;;;;;;;;2.00;0.67;;;;;8.59;73.92;99905.00;4979231;28;45581;-50
2024/01/05 06:35:56;;;;;;;;;1.00;1.00;;;;;8.58;74.39;99904.19;4979223;28;45348;-49
2024/01/05 06:38:21;;;;;;;;;0.00;0.00;;;;;8.51;73.82;99903.13;4978985;28;46249;-49
2024/01/05 06:40:47;;;;;;;;;0.00;0.00;;;;;8.53;73.31;99901.16;4978930;28;45276;-48
2024/01/05 06:43:12;;;;;;;;;2.00;0.00;;;;;8.50;74.22;99904.94;4978809;28;45272;-46
2024/01/05 06:45:38;;;;;;;;;0.33;0.00;;;;;8.48;73.74;99906.94;4978876;28;45422;-48
2024/01/05 06:48:06;;;;;;;;;0.00;0.00;;;;;8.44;74.23;99902.91;4979236;28;45554;-47
2024/01/05 06:50:31;;;;;;;;;0.00;0.00;;;;;8.38;74.01;99890.25;4978541;28;46192;-49
2024/01/05 06:52:56;;;;;;;;;2.00;0.00;;;;;8.42;74.75;99907.53;4978894;28;45358;-46
2024/01/05 06:55:22;;;;;;;;;0.00;0.00;;;;;8.39;75.17;99917.63;4978853;28;45456;-48
2024/01/05 06:57:48;;;;;;;;;0.00;0.00;;;;;8.41;74.68;99915.63;4978652;28;45464;-48
2024/01/05 07:00:13;;;;;;;;;0.33;0.00;;;;;8.40;75.31;99920.13;4978267;28;47041;-49
2024/01/05 07:02:40;;;;;;;;;0.00;0.00;;;;;8.39;74.19;99913.16;4977955;28;45424;-47
2024/01/05 07:05:06;;;;;;;;;2.00;0.00;;;;;8.36;73.81;99923.19;4977134;28;45482;-49
2024/01/05 07:07:31;;;;;;;;;1.00;0.00;;;;;8.31;74.93;99917.53;4978781;28;45434;-47
2024/01/05 07:09:56;;;;;;;;;2.00;0.00;;;;;8.33;75.76;99934.09;4978019;28;54238;-47
2024/01/05 07:12:22;;;;;;;;;0.00;0.00;;;;;8.31;75.80;99925.47;4978316;28;45311;-51
2024/01/05 07:14:47;;;;;;;;;0.00;0.00;;;;;8.27;75.27;99918.81;4978586;28;45347;-46
2024/01/05 07:17:13;;;;;;;;;1.00;1.00;;;;;8.30;75.78;99937.03;4978461;28;45466;-45
2024/01/05 07:19:39;;;;;;;;;6.33;1.00;;;;;8.29;76.13;99930.06;4978322;28;46279;-47
2024/01/05 07:22:04;;;;;;;;;0.67;0.67;;;;;8.26;74.75;99931.22;4978605;28;45331;-47
2024/01/05 07:24:29;;;;;;;;;2.00;0.00;;;;;8.28;75.35;99944.31;4978584;28;45418;-47
2024/01/05 07:26:55;;;;;;;;;0.00;0.00;;;;;8.24;75.26;99951.72;4978680;28;45264;-49
2024/01/05 07:29:20;;;;;;;;;4.33;1.00;;;;;8.18;75.42;99936.44;4978310;28;45366;-46
2024/01/05 07:31:45;;;;;;;;;2.00;0.00;;;;;8.24;74.78;99946.44;4976961;28;45391;-50
2024/01/05 07:34:10;;;;;;;;;2.00;0.00;;;;;8.20;75.59;99961.78;4978100;28;46200;-46
2024/01/05 07:36:41;;;;;;;;;0.67;0.67;;;;;8.17;75.40;99955.94;4978797;28;45311;-47
2024/01/05 07:39:08;;;;;;;;;1.00;1.00;;;;;8.14;76.29;99954.47;4977956;28;45414;-48
2024/01/05 07:41:36;;;;;;;;;0.00;0.00;;;;;8.15;76.20;99957.94;4978256;28;45253;-49
2024/01/05 07:44:01;;;;;;;;;3.00;1.00;;;;;8.14;76.45;99957.09;4978553;28;45347;-48
2024/01/05 07:46:27;;;;;;;;;0.00;0.00;;;;;8.14;75.96;99953.63;4978519;28;45420;-48
2024/01/05 07:48:52;;;;;;;;;0.00;0.00;;;;;8.14;76.22;99954.47;4978276;28;46995;-50
2024/01/05 07:51:21;;;;;;;;;1.00;1.00;;;;;8.13;76.60;99954.59;4978198;28;45416;-49
2024/01/05 07:53:49;;;;;;;;;4.00;1.33;;;;;8.15;76.93;99960.59;4978110;28;45391;-45
2024/01/05 07:56:18;;;;;;;;;1.00;1.00;;;;;8.04;76.15;99953.66;4977067;28;45498;-47
2024/01/05 07:58:44;;;;;;;;;0.00;0.00;;;;;8.17;75.68;99969.19;4979134;28;46222;-47
2024/01/05 08:01:19;;;;;;;;;0.00;0.00;;;;;8.11;75.78;99960.03;4979724;28;45511;-47
2024/01/05 08:03:45;;;;;;;;;1.33;1.00;;;;;8.15;75.63;99966.72;4979425;28;45544;-48
2024/01/05 08:06:18;;;;;;;;;0.00;0.00;;;;;8.15;75.93;99971.19;4979934;28;45447;-47
2024/01/05 08:08:47;;;;;;;;;5.00;1.67;;;;;8.12;77.34;99969.66;4978920;28;46251;-51
2024/01/05 08:11:13;;;;;;;;;0.00;0.00;;;;;8.15;76.46;99966.72;4978328;28;45537;-49
2024/01/05 08:13:40;;;;;;;;;1.00;1.00;;;;;8.21;76.26;99979.34;4978176;28;45384;-49
2024/01/05 08:16:06;;;;;;;;;1.67;1.00;;;;;8.21;76.44;99982.00;4976740;28;45403;-49
2024/01/05 08:18:31;;;;;;;;;2.00;1.00;;;;;8.22;76.92;99982.84;4976852;28;46139;-47
2024/01/05 08:20:57;;;;;;;;;1.00;1.00;;;;;8.25;76.68;99978.06;4977294;28;45612;-49
2024/01/05 08:23:22;;;;;;;;;1.00;1.00;;;;;8.27;75.75;99977.09;4977815;28;45387;-47
2024/01/05 08:25:48;;;;;;;;;0.67;0.00;;;;;8.28;76.57;99978.75;4977195;28;45577;-47
2024/01/05 08:28:13;;;;;;;;;4.00;1.00;;;;;8.29;76.51;99986.53;4976261;28;45484;-50
2024/01/05 08:30:39;;;;;;;;;4.33;2.33;;;;;8.30;76.65;99988.25;4975777;28;45508;-47
2024/01/05 08:33:05;;;;;;;;;1.00;1.00;;;;;8.32;75.78;99988.06;4975807;28;45480;-48
2024/01/05 08:35:30;;;;;;;;;1.00;1.00;;;;;8.35;76.02;99987.78;4975956;28;45479;-48
2024/01/05 08:37:56;;;;;;;;;1.00;1.00;;;;;8.34;76.51;99984.28;4975085;28;46099;-51
2024/01/05 08:40:25;;;;;;;;;2.00;0.00;;;;;8.38;75.58;99990.13;4975623;28;45611;-47
2024/01/05 08:42:51;;;;;;;;;2.00;1.00;;;;;8.42;75.53;99994.97;4975782;28;45456;-48
2024/01/05 08:45:18;;;;;;;;;1.00;1.00;;;;;8.46;75.37;99995.53;4975852;28;45398;-46
2024/01/05 08:47:43;;;;;;;;;0.00;0.00;;;;;8.47;75.89;99992.75;4975092;28;46220;-48
2024/01/05 08:50:08;;;;;;;;;1.00;1.00;;;;;8.49;74.75;99997.88;4975009;28;45427;-48
2024/01/05 08:52:34;;;;;;;;;2.33;0.33;;;;;8.50;75.83;100003.00;4975523;28;45405;-47
2024/01/05 08:54:59;;;;;;;;;1.00;1.00;;;;;8.54;75.86;99994.78;4975482;28;45450;-47
2024/01/05 08:57:24;;;;;;;;;2.00;1.00;;;;;8.60;75.38;100007.44;4974977;28;46187;-49
2024/01/05 08:59:50;;;;;;;;;2.00;1.00;;;;;8.64;75.75;100006.16;4974975;28;45501;-48
2024/01/05 09:02:15;;;;;;;;;1.00;1.00;;;;;8.68;75.44;100010.13;4975077;28;45510;-50
2024/01/05 09:04:40;;;;;;;;;5.00;1.00;;;;;8.55;75.24;99994.59;4975259;28;46417;-48
2024/01/05 09:07:05;;;;;;;;;1.00;1.00;;;;;8.77;75.12;100019.00;4975115;28;46104;-48
2024/01/05 09:09:31;;;;;;;;;2.00;0.00;;;;;8.83;74.46;100021.88;4974796;28;45509;-47
2024/01/05 09:11:56;;;;;;;;;1.00;1.00;;;;;8.87;74.64;100014.44;4975097;28;45486;-47
2024/01/05 09:14:21;;;;;;;;;1.00;1.00;;;;;8.92;73.99;100023.59;4974065;28;45556;-50
2024/01/05 09:16:47;;;;;;;;;2.00;1.67;;;;;9.01;74.03;100027.16;4974516;28;46167;-47
2024/01/05 09:19:13;;;;;;;;;2.00;2.00;;;;;9.13;73.35;100025.91;4974842;28;45435;-47
2024/01/05 09:21:39;;;;;;;;;1.00;1.00;;;;;9.29;73.48;100027.84;4974844;28;45379;-44
2024/01/05 09:24:04;;;;;;;;;0.67;0.67;;;;;9.57;72.87;100033.03;4973121;28;45605;-46
2024/01/05 09:26:30;;;;;;;;;5.00;1.67;;;;;9.91;71.89;100017.91;4974900;28;46361;-47
2024/01/05 09:28:55;;;;;;;;;1.67;1.00;;;;;10.45;70.47;100036.22;4974621;28;45316;-47
2024/01/05 09:31:20;;;;;;;;;2.33;1.67;;;;;11.09;68.47;100039.09;4974871;28;45292;-46
2024/01/05 09:33:49;;;;;;;;;1.00;1.00;;;;;11.79;67.38;100028.59;4974938;28;45340;-46
2024/01/05 09:36:15;;;;;;;;;1.00;1.00;;;;;12.48;66.13;100024.31;4974657;28;47097;-45
2024/01/05 09:38:40;;;;;;;;;2.00;1.00;;;;;13.26;63.30;100038.41;4973566;28;45553;-49
2024/01/05 09:41:08;;;;;;;;;1.67;1.33;;;;;14.06;61.39;100032.34;4974759;28;45455;-47
2024/01/05 09:43:35;;;;;;;;;1.00;1.00;;;;;14.75;58.34;100028.38;4974796;28;45651;-48
2024/01/05 09:46:01;;;;;;;;;0.67;0.67;;;;;15.38;57.60;100027.50;4974370;28;47136;-48
2024/01/05 09:48:27;;;;;;;;;1.33;1.33;;;;;16.12;55.31;100032.25;4974508;28;45442;-48
2024/01/05 09:50:55;;;;;;;;;1.00;0.00;;;;;16.74;52.69;100027.72;4974891;28;45458;-47
2024/01/05 09:53:21;;;;;;;;;0.25;0.25;;;;;17.28;54.14;100037.47;4974469;28;45545;-49
2024/01/05 09:55:47;;;;;;;;;4.00;1.00;;;;;17.87;49.86;100035.75;4974664;28;46208;-45
2024/01/05 09:58:15;;;;;;;;;0.25;0.00;;;;;18.44;51.48;100036.75;4974196;28;45803;-50
2024/01/05 10:00:45;;;;;;;;;2.00;0.75;;;;;19.00;49.43;100041.38;4974666;28;45502;-47
2024/01/05 10:03:19;;;;;;;;;1.00;1.00;;;;;19.40;50.56;100041.06;4974531;28;45465;-49
2024/01/05 10:05:45;;;;;;;;;1.00;1.00;;;;;19.59;44.30;100018.50;4974199;28;45513;-48
2024/01/05 10:08:11;;;;;;;;;1.00;1.00;;;;;20.16;44.38;100039.88;4974225;28;45456;-51
2024/01/05 10:10:53;;;;;;;;;1.50;1.00;;;;;20.61;44.20;100040.34;4974642;28;45701;-49
2024/01/05 10:13:19;;;;;;;;;3.50;1.00;;;;;21.05;42.62;100042.81;4974516;28;45580;-49
2024/01/05 10:15:51;;;;;;;;;3.25;2.50;;;;;21.32;43.02;100044.06;4974215;28;47272;-51
2024/01/05 10:18:17;;;;;;;;;2.20;2.20;;;;;21.71;41.93;100049.00;4973944;28;45414;-50
2024/01/05 10:20:42;;;;;;;;;2.50;2.50;;;;;21.90;41.16;100050.50;4974435;28;45429;-49
2024/01/05 10:23:08;;;;;;;;;1.00;1.00;;;;;22.04;42.11;100051.91;4974288;28;45422;-48
2024/01/05 10:25:36;;;;;;;;;1.00;1.00;;;;;21.93;39.52;100045.44;4974327;28;46266;-49
2024/01/05 10:28:01;;;;;;;;;3.00;1.00;;;;;21.71;39.38;100040.88;4974157;28;45579;-48
2024/01/05 10:30:30;;;;;;;;;1.00;1.00;;;;;21.82;42.19;100046.25;4974491;28;46618;-48
2024/01/05 10:33:06;;;;;;;;;1.80;1.80;;;;;21.66;40.95;100033.47;4974202;28;45184;-45
2024/01/05 10:35:34;;;;;;;;;6.00;2.00;;;;;21.46;40.05;100036.53;4973806;28;46216;-50
2024/01/05 10:38:07;;;;;;;;;3.00;3.00;;;;;20.88;41.48;100031.84;4974138;28;45470;-47
2024/01/05 10:40:33;;;;;;;;;2.80;1.20;;;;;19.85;42.83;100027.38;4977932;28;45513;-47
2024/01/05 10:43:13;;;;;;;;;1.50;1.25;;;;;19.15;43.47;100041.91;4977742;28;45465;-50
2024/01/05 10:45:40;;;;;;;;;3.00;1.00;;;;;18.85;45.07;100039.03;4977153;28;46346;-49
2024/01/05 10:48:08;;;;;;;;;1.80;1.80;;;;;19.08;44.66;100037.59;4977128;28;45397;-49
2024/01/05 10:50:37;;;;;;;;;2.40;1.00;;;;;19.85;44.17;100032.78;4977644;28;45410;-49
2024/01/05 10:53:11;;;;;;;;;2.00;2.00;;;;;19.88;42.22;100033.13;4977701;28;45982;-48
2024/01/05 10:55:37;;;;;;;;;0.00;0.00;;;;;20.48;42.02;100021.63;4978327;28;45403;-47
2024/01/05 10:58:06;;;;;;;;;1.20;1.20;;;;;20.75;40.96;100022.06;4978813;28;45363;-47
2024/01/05 11:00:32;;;;;;;;;4.20;1.80;;;;;19.82;41.43;100017.84;4978819;28;45279;-50
2024/01/05 11:03:18;;;;;;;;;3.00;0.00;;;;;19.92;42.58;100028.09;4978809;28;45438;-48
2024/01/05 11:05:45;;;;;;;;;3.00;1.00;;;;;19.81;42.46;100024.28;4978389;28;47297;-49
2024/01/05 11:08:34;;;;;;;;;0.80;0.80;;;;;20.38;42.58;100013.19;4978493;28;45422;-47
2024/01/05 11:11:17;;;;;;;;;3.60;0.80;;;;;20.28;41.07;99994.03;4978526;28;45380;-50
2024/01/05 11:13:54;;;;;;;;;3.40;1.20;;;;;20.29;41.57;100018.09;4978185;28;45430;-52
2024/01/05 11:16:52;;;;;;;;;2.00;0.00;;;;;20.59;40.65;100031.63;4975981;28;45479;-48
2024/01/05 11:19:34;;;;;;;;;3.00;1.00;;;;;21.09;40.33;100031.28;4975805;28;46214;-47
2024/01/05 11:22:16;;;;;;;;;1.80;1.00;;;;;21.24;39.12;100024.59;4975984;28;45426;-48
2024/01/05 11:24:42;;;;;;;;;1.00;1.00;;;;;20.90;40.02;100018.94;4975837;28;45387;-49
2024/01/05 11:27:26;;;;;;;;;4.50;2.00;;;;;21.74;39.30;100022.25;4975936;28;46168;-50
2024/01/05 11:29:53;;;;;;;;;2.60;1.00;;;;;21.89;37.89;100017.19;4975765;28;45581;-49
2024/01/05 11:32:45;;;;;;;;;1.60;1.60;;;;;21.21;39.71;100030.50;4975876;28;45589;-46